Time;durP1;ratioP1;P1;durP2;ratioP2;P2;SDS_P1;SDS_P2;PMS_P1;PMS_P2;Temp;Humidity;BMP_temperature;BMP_pressure;BME280_temperature;BME280_humidity;BME280_pressure;Samples;Min_cycle;Max_cycle;Signal;HPM_P1;HPM_P2
2021/12/22 00:01:18;;;;;;;;;;;;;;;-3.61;80.05;101962.00;4980233;28;20420;-85
2021/12/22 00:03:47;;;;;;;;;;;;;;;-3.61;80.38;101959.41;4974351;28;19900;-85
2021/12/22 00:06:14;;;;;;;;;;;;;;;-3.64;80.23;101957.72;4966931;28;20201;-85
2021/12/22 00:08:39;;;;;;;;;;;;;;;-3.65;80.05;101956.00;4971718;28;19930;-85
2021/12/22 00:11:04;;;;;;;;;;;;;;;-3.50;80.28;101952.41;4984834;28;19907;-85
2021/12/22 00:13:30;;;;;;;;;;;;;;;-3.57;80.16;101948.16;4966288;28;20672;-83
2021/12/22 00:15:55;;;;;;;;;;;;;;;-3.63;80.08;101948.22;4987803;27;20938;-84
2021/12/22 00:18:20;;;;;;;;;;;;;;;-3.69;80.18;101943.97;4998311;27;20290;-85
2021/12/22 00:20:45;;;;;;;;;;;;;;;-3.57;80.43;101944.72;4983467;27;20399;-86
2021/12/22 00:23:11;;;;;;;;;;;;;;;-3.54;79.25;101948.16;4993347;27;20609;-86
2021/12/22 00:25:36;;;;;;;;;;;;;;;-3.64;79.47;101944.78;4975597;27;20133;-85
2021/12/22 00:28:02;;;;;;;;;;;;;;;-3.63;79.80;101949.06;4979546;27;19908;-86
2021/12/22 00:30:28;;;;;;;;;;;;;;;-3.66;79.78;101950.84;4991804;27;19907;-83
2021/12/22 00:32:56;;;;;;;;;;;;;;;-3.71;80.38;101950.03;4991213;27;20525;-86
2021/12/22 00:35:24;;;;;;;;;;;;;;;-3.73;80.70;101954.38;4960053;27;20172;-86
2021/12/22 00:37:49;;;;;;;;;;;;;;;-3.54;80.50;101955.91;4930584;28;20510;-86
2021/12/22 00:40:14;;;;;;;;;;;;;;;-3.45;79.71;101953.19;4926037;28;20786;-86
2021/12/22 00:42:39;;;;;;;;;;;;;;;-3.39;79.41;101946.25;4944068;27;20446;-85
2021/12/22 00:45:05;;;;;;;;;;;;;;;-3.49;78.92;101951.53;4931032;27;19912;-86
2021/12/22 00:47:30;;;;;;;;;;;;;;;-3.42;79.26;101946.28;4950792;27;19968;-86
2021/12/22 00:49:55;;;;;;;;;;;;;;;-3.53;79.19;101939.47;4952314;27;19930;-86
2021/12/22 00:52:21;;;;;;;;;;;;;;;-3.57;79.63;101932.63;4939580;27;19911;-85
2021/12/22 00:54:46;;;;;;;;;;;;;;;-3.52;79.65;101930.84;4961474;27;19969;-81
2021/12/22 00:57:11;;;;;;;;;;;;;;;-3.55;79.65;101930.91;4940854;27;19908;-85
2021/12/22 00:59:37;;;;;;;;;;;;;;;-3.59;79.59;101934.38;4959592;27;20450;-85
2021/12/22 01:02:04;;;;;;;;;;;;;;;-3.61;79.66;101930.94;4949104;27;20161;-79
2021/12/22 01:04:29;;;;;;;;;;;;;;;-3.72;79.67;101927.63;4960378;27;19922;-84
2021/12/22 01:06:54;;;;;;;;;;;;;;;-3.71;80.53;101929.34;4947358;28;20329;-80
2021/12/22 01:09:19;;;;;;;;;;;;;;;-3.64;79.94;101931.88;4973321;27;21014;-85
2021/12/22 01:11:45;;;;;;;;;;;;;;;-3.53;79.88;101929.13;4951753;27;20132;-84
2021/12/22 01:14:10;;;;;;;;;;;;;;;-3.60;79.79;101931.81;4945756;27;19930;-85
2021/12/22 01:16:36;;;;;;;;;;;;;;;-3.57;79.36;101931.78;4949921;28;19997;-85
2021/12/22 01:19:05;;;;;;;;;;;;;;;-3.57;79.74;101931.78;4950578;28;19988;-85
2021/12/22 01:21:42;;;;;;;;;;;;;;;-3.67;79.49;101925.84;4932796;28;20013;-85
2021/12/22 01:24:16;;;;;;;;;;;;;;;-3.74;80.07;101934.56;4950644;28;20197;-85
2021/12/22 01:26:46;;;;;;;;;;;;;;;-3.77;80.55;101934.59;4934418;28;19911;-84
2021/12/22 01:29:12;;;;;;;;;;;;;;;-3.72;80.18;101932.78;4937066;28;19922;-85
2021/12/22 01:31:40;;;;;;;;;;;;;;;-3.78;80.58;101930.28;4954815;28;19915;-85
2021/12/22 01:34:05;;;;;;;;;;;;;;;-3.78;80.46;101933.72;4935243;28;20696;-85
2021/12/22 01:36:30;;;;;;;;;;;;;;;-3.65;79.29;101940.50;4923147;28;20030;-85
2021/12/22 01:38:55;;;;;;;;;;;;;;;-3.75;79.70;101949.22;4931363;28;19912;-85
2021/12/22 01:41:21;;;;;;;;;;;;;;;-3.74;79.07;101952.66;4957930;27;19963;-84
2021/12/22 01:43:47;;;;;;;;;;;;;;;-3.73;79.03;101959.56;4935000;28;19953;-85
2021/12/22 01:49:10;;;;;;;;;;;;;;;-3.71;79.26;101960.38;4950544;28;19923;-83
2021/12/22 01:51:55;;;;;;;;;;;;;;;-3.68;79.42;101957.75;4934563;28;19904;-82
2021/12/22 01:54:20;;;;;;;;;;;;;;;-3.73;79.63;101957.81;4951253;28;19911;-82
2021/12/22 01:56:45;;;;;;;;;;;;;;;-3.78;78.92;101953.56;4981430;27;20327;-82
2021/12/22 01:59:11;;;;;;;;;;;;;;;-3.84;79.48;101963.06;4930260;28;19918;-85
2021/12/22 02:01:36;;;;;;;;;;;;;;;-3.85;79.71;101960.50;4942243;28;20926;-83
2021/12/22 02:04:02;;;;;;;;;;;;;;;-3.79;79.30;101963.06;4942608;28;20213;-85
2021/12/22 02:06:27;;;;;;;;;;;;;;;-3.69;79.01;101966.41;4926169;28;20427;-84
2021/12/22 02:08:53;;;;;;;;;;;;;;;-3.73;78.58;101962.13;4924212;28;19923;-84
2021/12/22 02:11:19;;;;;;;;;;;;;;;-3.76;79.01;101963.03;4920479;28;19919;-84
2021/12/22 02:13:48;;;;;;;;;;;;;;;-3.77;78.88;101955.28;4922876;28;19912;-85
2021/12/22 02:16:15;;;;;;;;;;;;;;;-3.85;79.85;101958.81;4920345;28;20698;-80
2021/12/22 02:18:48;;;;;;;;;;;;;;;-3.80;79.59;101966.50;4919013;28;20088;-84
2021/12/22 02:21:14;;;;;;;;;;;;;;;-3.80;79.37;101959.59;4917421;28;19900;-84
2021/12/22 02:23:40;;;;;;;;;;;;;;;-3.77;79.23;101965.63;4903996;28;19914;-83
2021/12/22 02:26:11;;;;;;;;;;;;;;;-3.79;79.56;101968.22;4911374;28;20436;-84
2021/12/22 02:28:40;;;;;;;;;;;;;;;-3.86;80.08;101962.25;4944527;27;20975;-84
2021/12/22 02:31:06;;;;;;;;;;;;;;;-3.78;79.58;101956.13;4942951;27;20035;-84
2021/12/22 02:33:39;;;;;;;;;;;;;;;-3.90;80.23;101960.56;4943478;27;20071;-83
2021/12/22 02:38:40;;;;;;;;;;;;;;;-3.88;79.54;101963.97;4934768;27;19931;-85
2021/12/22 02:41:08;;;;;;;;;;;;;;;-3.94;79.59;101958.03;4930105;28;19908;-82
2021/12/22 02:43:34;;;;;;;;;;;;;;;-3.97;80.51;101954.56;4927139;28;20376;-85
2021/12/22 02:45:59;;;;;;;;;;;;;;;-3.92;80.99;101954.56;4929528;28;19916;-84
2021/12/22 02:48:31;;;;;;;;;;;;;;;-3.94;81.39;101953.69;4925772;28;20323;-83
2021/12/22 02:50:58;;;;;;;;;;;;;;;-3.89;81.15;101941.59;4920289;28;20209;-84
2021/12/22 02:53:28;;;;;;;;;;;;;;;-3.88;81.03;101938.13;4929779;28;20732;-85
2021/12/22 02:56:01;;;;;;;;;;;;;;;-3.84;80.25;101944.13;4954359;28;20353;-85
2021/12/22 02:58:41;;;;;;;;;;;;;;;-3.78;80.51;101946.63;4938905;27;19907;-85
2021/12/22 03:03:53;;;;;;;;;;;;;;;-3.84;79.96;101944.97;4939190;27;19907;-85
2021/12/22 03:06:28;;;;;;;;;;;;;;;-3.86;79.84;101946.72;4947835;27;19912;-81
2021/12/22 03:08:53;;;;;;;;;;;;;;;-3.81;80.23;101949.25;4935477;28;20715;-85
2021/12/22 03:11:19;;;;;;;;;;;;;;;-3.76;80.53;101937.16;4912019;28;19957;-85
2021/12/22 03:13:44;;;;;;;;;;;;;;;-3.71;80.66;101929.34;4920913;28;19912;-82
2021/12/22 03:16:09;;;;;;;;;;;;;;;-3.71;81.00;101926.75;4919735;28;20576;-82
2021/12/22 03:18:35;;;;;;;;;;;;;;;-3.67;80.87;101925.84;4912201;28;20632;-84
2021/12/22 03:21:12;;;;;;;;;;;;;;;-3.50;80.57;101929.13;4903505;28;20650;-84
2021/12/22 03:23:37;;;;;;;;;;;;;;;-3.49;81.28;101925.66;4954626;27;19970;-85
2021/12/22 03:26:02;;;;;;;;;;;;;;;-3.52;81.00;101935.19;4936196;28;20454;-84
2021/12/22 03:28:29;;;;;;;;;;;;;;;-3.63;80.24;101922.34;4929944;27;19920;-85
2021/12/22 03:30:56;;;;;;;;;;;;;;;-3.57;80.51;101924.88;4916742;27;20002;-83
2021/12/22 03:33:21;;;;;;;;;;;;;;;-3.52;80.69;101925.69;4909354;28;19910;-85
2021/12/22 03:35:46;;;;;;;;;;;;;;;-3.40;80.53;101929.00;4919993;28;19908;-85
2021/12/22 03:38:12;;;;;;;;;;;;;;;-3.45;80.10;101935.09;4932575;27;20362;-85
2021/12/22 03:40:37;;;;;;;;;;;;;;;-3.47;80.68;101928.22;4923980;28;19912;-85
2021/12/22 03:43:02;;;;;;;;;;;;;;;-3.52;80.16;101923.09;4945471;27;19935;-85
2021/12/22 03:45:27;;;;;;;;;;;;;;;-3.48;80.83;101917.00;4932575;27;20974;-82
2021/12/22 03:47:53;;;;;;;;;;;;;;;-3.48;80.51;101919.59;4937537;28;20511;-81
2021/12/22 03:50:18;;;;;;;;;;;;;;;-3.44;80.45;101917.84;4920440;28;20432;-85
2021/12/22 03:52:44;;;;;;;;;;;;;;;-3.43;80.29;101914.38;4919221;28;20573;-85
2021/12/22 03:55:09;;;;;;;;;;;;;;;-3.41;80.22;101906.56;4917137;28;20256;-84
2021/12/22 03:57:34;;;;;;;;;;;;;;;-3.45;80.25;101909.22;4918265;28;19979;-85
2021/12/22 04:00:01;;;;;;;;;;;;;;;-3.35;80.73;101914.28;4919864;28;19908;-85
2021/12/22 04:02:27;;;;;;;;;;;;;;;-3.30;80.71;101915.06;4922714;28;20606;-83
2021/12/22 04:04:52;;;;;;;;;;;;;;;-3.18;80.94;101920.09;4924999;28;20117;-84
2021/12/22 04:07:18;;;;;;;;;;;;;;;-3.04;81.17;101913.91;4924499;28;20116;-85
2021/12/22 04:09:43;;;;;;;;;;;;;;;-3.00;80.35;101913.81;4934025;28;19923;-85
2021/12/22 04:12:08;;;;;;;;;;;;;;;-2.94;80.91;101912.88;4932545;28;19953;-84
2021/12/22 04:14:34;;;;;;;;;;;;;;;-2.90;80.26;101916.31;4931570;28;19916;-82
2021/12/22 04:16:59;;;;;;;;;;;;;;;-2.80;80.07;101910.94;4934395;28;19955;-84
2021/12/22 04:19:24;;;;;;;;;;;;;;;-2.79;80.00;101912.69;4909079;28;19953;-78
2021/12/22 04:21:50;;;;;;;;;;;;;;;-2.78;80.32;101918.69;4910420;28;20380;-84
2021/12/22 04:24:16;;;;;;;;;;;;;;;-2.72;80.07;101922.94;4917970;28;19904;-85
2021/12/22 04:26:41;;;;;;;;;;;;;;;-2.70;79.75;101918.59;4918086;28;19915;-85
2021/12/22 04:29:06;;;;;;;;;;;;;;;-2.65;79.78;101925.44;4915815;28;20024;-83
2021/12/22 04:31:31;;;;;;;;;;;;;;;-2.66;79.50;101928.03;4919454;28;19912;-84
2021/12/22 04:33:57;;;;;;;;;;;;;;;-2.71;79.54;101935.88;4932894;28;20282;-85
2021/12/22 04:36:22;;;;;;;;;;;;;;;-2.76;79.58;101935.94;4928753;28;20272;-85
2021/12/22 04:38:47;;;;;;;;;;;;;;;-2.82;79.71;101943.81;4939983;28;20002;-85
2021/12/22 04:41:13;;;;;;;;;;;;;;;-2.81;79.52;101942.91;4916457;28;19972;-85
2021/12/22 04:43:38;;;;;;;;;;;;;;;-2.83;79.61;101946.41;4930418;28;19965;-85
2021/12/22 04:46:03;;;;;;;;;;;;;;;-2.85;79.56;101943.84;4932690;28;19946;-85
2021/12/22 04:48:28;;;;;;;;;;;;;;;-2.89;79.50;101946.50;4948325;27;19927;-83
2021/12/22 04:50:54;;;;;;;;;;;;;;;-3.00;79.95;101947.50;4933648;27;19931;-85
2021/12/22 04:53:26;;;;;;;;;;;;;;;-2.98;79.37;101948.31;4958168;27;20097;-84
2021/12/22 04:55:51;;;;;;;;;;;;;;;-2.99;79.79;101940.56;4951588;27;20166;-85
2021/12/22 04:58:16;;;;;;;;;;;;;;;-3.04;79.56;101953.59;4962295;27;20409;-85
2021/12/22 05:00:42;;;;;;;;;;;;;;;-3.08;79.88;101945.88;4986767;27;20000;-85
2021/12/22 05:03:07;;;;;;;;;;;;;;;-2.99;79.46;101950.94;4985917;27;19960;-83
2021/12/22 05:05:32;;;;;;;;;;;;;;;-2.97;79.35;101950.03;4975690;27;20088;-84
2021/12/22 05:07:58;;;;;;;;;;;;;;;-2.97;79.44;101934.50;4966062;27;20206;-85
2021/12/22 05:10:23;;;;;;;;;;;;;;;-2.94;79.64;101933.59;4951602;27;19915;-84
2021/12/22 05:12:49;;;;;;;;;;;;;;;-2.90;79.24;101934.44;4954734;27;20291;-86
2021/12/22 05:15:18;;;;;;;;;;;;;;;-2.90;79.30;101935.28;4934162;27;19908;-85
2021/12/22 05:20:08;;;;;;;;;;;;;;;-2.93;79.43;101930.16;4961325;27;20289;-85
2021/12/22 05:22:34;;;;;;;;;;;;;;;-3.01;79.13;101937.16;4957260;28;20362;-85
2021/12/22 05:24:59;;;;;;;;;;;;;;;-2.94;78.97;101929.28;4943491;28;19936;-85
2021/12/22 05:27:25;;;;;;;;;;;;;;;-2.91;79.17;101923.19;4964142;28;19927;-85
2021/12/22 05:29:50;;;;;;;;;;;;;;;-2.96;79.12;101922.41;4962291;27;19924;-83
2021/12/22 05:32:15;;;;;;;;;;;;;;;-2.93;79.17;101914.59;4953307;27;20332;-82
2021/12/22 05:34:40;;;;;;;;;;;;;;;-2.78;79.19;101918.69;4937231;27;20854;-83
2021/12/22 05:37:06;;;;;;;;;;;;;;;-2.73;78.94;101918.66;4927478;27;20850;-84
2021/12/22 05:39:31;;;;;;;;;;;;;;;-2.68;78.67;101919.41;4946713;27;20858;-85
2021/12/22 05:41:57;;;;;;;;;;;;;;;-2.72;78.70;101917.75;4947508;27;19905;-85
2021/12/22 05:44:23;;;;;;;;;;;;;;;-2.68;78.76;101922.88;4923962;27;19988;-80
2021/12/22 05:46:48;;;;;;;;;;;;;;;-2.62;78.69;101925.38;4933218;27;19911;-83
2021/12/22 05:49:13;;;;;;;;;;;;;;;-2.70;78.75;101911.69;4925040;28;19932;-82
2021/12/22 05:51:38;;;;;;;;;;;;;;;-2.79;78.97;101917.00;4929743;28;19915;-83
2021/12/22 05:54:04;;;;;;;;;;;;;;;-2.76;79.03;101912.63;4915041;28;19940;-82
2021/12/22 05:56:30;;;;;;;;;;;;;;;-2.73;78.84;101919.50;4914410;28;19956;-83
2021/12/22 05:58:55;;;;;;;;;;;;;;;-2.74;78.67;101914.34;4907230;28;20698;-83
2021/12/22 06:01:20;;;;;;;;;;;;;;;-2.76;79.26;101917.81;4927803;28;19913;-82
2021/12/22 06:03:46;;;;;;;;;;;;;;;-2.76;78.94;101912.63;4919159;27;20493;-83
2021/12/22 06:06:11;;;;;;;;;;;;;;;-2.81;78.86;101917.00;4923694;27;19923;-83
2021/12/22 06:08:36;;;;;;;;;;;;;;;-2.82;79.06;101902.38;4911226;28;20189;-82
2021/12/22 06:11:01;;;;;;;;;;;;;;;-2.77;78.60;101910.06;4921288;27;19968;-83
2021/12/22 06:13:27;;;;;;;;;;;;;;;-2.77;78.67;101907.47;4909869;28;19997;-82
2021/12/22 06:15:52;;;;;;;;;;;;;;;-2.78;78.62;101904.03;4916461;27;19909;-82
2021/12/22 06:18:17;;;;;;;;;;;;;;;-2.86;79.12;101900.69;4910146;28;20373;-83
2021/12/22 06:20:42;;;;;;;;;;;;;;;-2.98;78.91;101893.94;4909635;28;19912;-84
2021/12/22 06:23:08;;;;;;;;;;;;;;;-2.87;79.10;101895.53;4935864;28;19908;-84
2021/12/22 06:25:33;;;;;;;;;;;;;;;-2.90;78.59;101898.19;4931651;28;19916;-84
2021/12/22 06:27:58;;;;;;;;;;;;;;;-2.95;79.33;101901.69;4916145;28;20483;-84
2021/12/22 06:30:24;;;;;;;;;;;;;;;-3.04;78.70;101896.63;4912095;27;20436;-84
2021/12/22 06:32:49;;;;;;;;;;;;;;;-3.08;79.31;101905.31;4968956;27;19901;-83
2021/12/22 06:35:15;;;;;;;;;;;;;;;-3.05;79.15;101912.19;4925369;28;19988;-83
2021/12/22 06:37:41;;;;;;;;;;;;;;;-3.07;79.37;101909.63;4905828;28;19919;-81
2021/12/22 06:40:07;;;;;;;;;;;;;;;-2.99;79.61;101917.25;4906641;28;20720;-83
2021/12/22 06:42:32;;;;;;;;;;;;;;;-3.03;79.02;101915.59;4917874;28;19904;-83
2021/12/22 06:44:57;;;;;;;;;;;;;;;-3.10;79.45;101914.84;4938436;27;19915;-81
2021/12/22 06:47:22;;;;;;;;;;;;;;;-3.12;79.42;101922.63;4934892;27;19926;-80
2021/12/22 06:49:48;;;;;;;;;;;;;;;-3.27;79.68;101917.66;4945747;27;19967;-80
2021/12/22 06:52:13;;;;;;;;;;;;;;;-3.30;80.06;101909.91;4948515;27;19948;-81
2021/12/22 06:54:38;;;;;;;;;;;;;;;-3.23;80.14;101916.69;4932160;27;19904;-80
2021/12/22 06:57:03;;;;;;;;;;;;;;;-3.23;79.42;101916.69;4924930;28;19904;-81
2021/12/22 06:59:29;;;;;;;;;;;;;;;-3.27;80.09;101912.47;4912845;28;19911;-81
2021/12/22 07:01:54;;;;;;;;;;;;;;;-3.28;80.02;101908.16;4924282;28;19904;-82
2021/12/22 07:04:19;;;;;;;;;;;;;;;-3.38;79.48;101919.50;4910072;28;19919;-81
2021/12/22 07:06:45;;;;;;;;;;;;;;;-3.35;79.68;101907.38;4902590;27;20409;-81
2021/12/22 07:09:10;;;;;;;;;;;;;;;-3.35;79.43;101909.13;4911917;27;19923;-80
2021/12/22 07:11:36;;;;;;;;;;;;;;;-3.33;79.94;101915.13;4928157;28;20412;-80
2021/12/22 07:14:02;;;;;;;;;;;;;;;-3.35;79.68;101911.69;4908383;28;19947;-81
2021/12/22 07:16:27;;;;;;;;;;;;;;;-3.39;79.62;101910.03;4917965;28;20410;-81
2021/12/22 07:18:52;;;;;;;;;;;;;;;-3.35;79.85;101911.69;4900105;28;19952;-81
2021/12/22 07:21:17;;;;;;;;;;;;;;;-3.34;79.70;101898.75;4924862;28;19919;-80
2021/12/22 07:23:43;;;;;;;;;;;;;;;-3.36;79.71;101903.06;4937054;28;20005;-80
2021/12/22 07:26:13;;;;;;;;;;;;;;;-3.36;79.94;101903.06;4936543;28;19904;-80
2021/12/22 07:28:38;;;;;;;;;;;;;;;-3.42;79.75;101899.72;4933224;28;20421;-82
2021/12/22 07:31:04;;;;;;;;;;;;;;;-3.43;79.62;101904.00;4938565;28;20331;-81
2021/12/22 07:33:29;;;;;;;;;;;;;;;-3.35;79.31;101901.34;4956127;27;20769;-81
2021/12/22 07:36:01;;;;;;;;;;;;;;;-3.36;79.43;101903.06;4962976;27;19907;-83
2021/12/22 07:38:35;;;;;;;;;;;;;;;-3.40;79.20;101897.94;4951986;27;20259;-81
2021/12/22 07:41:01;;;;;;;;;;;;;;;-3.48;79.84;101900.66;4966937;27;19908;-82
2021/12/22 07:43:26;;;;;;;;;;;;;;;-3.45;79.65;101906.63;4970891;27;20269;-81
2021/12/22 07:45:51;;;;;;;;;;;;;;;-3.41;79.11;101914.34;4957933;27;19907;-83
2021/12/22 07:48:17;;;;;;;;;;;;;;;-3.35;79.56;101902.19;4992848;27;19961;-82
2021/12/22 07:50:42;;;;;;;;;;;;;;;-3.39;79.78;101891.91;4965326;28;20869;-84
2021/12/22 07:53:07;;;;;;;;;;;;;;;-3.28;79.25;101900.41;4946853;28;19911;-84
2021/12/22 07:55:32;;;;;;;;;;;;;;;-3.19;79.46;101902.84;4965792;28;19912;-82
2021/12/22 07:57:58;;;;;;;;;;;;;;;-3.29;79.24;101904.69;4951091;28;19912;-82
2021/12/22 08:00:23;;;;;;;;;;;;;;;-3.26;79.29;101903.81;4965529;27;19918;-83
2021/12/22 08:02:48;;;;;;;;;;;;;;;-3.24;79.20;101902.06;4986536;27;20137;-83
2021/12/22 08:05:14;;;;;;;;;;;;;;;-3.27;79.70;101907.28;5023031;27;20289;-85
2021/12/22 08:07:39;;;;;;;;;;;;;;;-3.33;79.66;101902.16;4988298;28;19908;-84
2021/12/22 08:10:05;;;;;;;;;;;;;;;-3.29;79.79;101901.25;4988169;28;20512;-84
2021/12/22 08:12:30;;;;;;;;;;;;;;;-3.28;79.85;101902.97;4969093;28;19908;-84
2021/12/22 08:14:55;;;;;;;;;;;;;;;-3.26;79.73;101915.91;4994060;28;20384;-84
2021/12/22 08:17:21;;;;;;;;;;;;;;;-3.20;80.39;101906.34;4971862;28;19940;-86
2021/12/22 08:19:46;;;;;;;;;;;;;;;-3.20;80.05;101910.63;5005111;27;19903;-84
2021/12/22 08:22:12;;;;;;;;;;;;;;;-3.06;80.28;101903.56;4983845;27;20258;-84
2021/12/22 08:24:37;;;;;;;;;;;;;;;-2.94;79.56;101912.88;4976529;28;19990;-83
2021/12/22 08:27:02;;;;;;;;;;;;;;;-2.89;79.13;101911.09;4972312;28;19945;-84
2021/12/22 08:29:28;;;;;;;;;;;;;;;-2.89;79.57;101905.91;4971487;28;19916;-81
2021/12/22 08:31:53;;;;;;;;;;;;;;;-2.79;79.39;101901.47;4977221;28;20433;-82
2021/12/22 08:34:24;;;;;;;;;;;;;;;-2.73;78.92;101905.69;4959603;28;20044;-84
2021/12/22 08:39:33;;;;;;;;;;;;;;;-2.57;79.04;101907.16;4963249;28;19926;-82
2021/12/22 08:41:58;;;;;;;;;;;;;;;-2.52;79.05;101901.94;4977621;28;19912;-83
2021/12/22 08:44:25;;;;;;;;;;;;;;;-2.46;79.33;101888.84;4976092;28;19911;-82
2021/12/22 08:46:50;;;;;;;;;;;;;;;-2.36;79.13;101889.56;4950930;27;20192;-83
2021/12/22 08:49:16;;;;;;;;;;;;;;;-2.31;78.71;101883.41;4951787;27;20346;-82
2021/12/22 08:51:41;;;;;;;;;;;;;;;-2.21;78.68;101889.31;4941998;27;19904;-83
2021/12/22 08:54:07;;;;;;;;;;;;;;;-2.19;78.37;101897.91;4937926;27;19907;-83
2021/12/22 08:56:32;;;;;;;;;;;;;;;-2.10;78.05;101897.75;4938329;27;20024;-81
2021/12/22 08:58:57;;;;;;;;;;;;;;;-1.90;77.99;101901.75;4951369;27;19907;-81
2021/12/22 09:01:23;;;;;;;;;;;;;;;-1.83;78.15;101895.53;4946306;28;20496;-81
2021/12/22 09:03:48;;;;;;;;;;;;;;;-1.76;77.81;101893.69;4930029;28;19916;-82
2021/12/22 09:06:14;;;;;;;;;;;;;;;-1.49;77.66;101899.25;4948631;28;20028;-82
2021/12/22 09:08:39;;;;;;;;;;;;;;;-1.35;76.99;101897.22;4937492;28;20421;-82
2021/12/22 09:11:04;;;;;;;;;;;;;;;-1.17;77.16;101895.97;4923963;28;19907;-82
2021/12/22 09:13:30;;;;;;;;;;;;;;;-0.99;76.30;101893.84;4939602;27;20295;-82
2021/12/22 09:15:55;;;;;;;;;;;;;;;-0.72;76.14;101898.44;4953523;27;19918;-82
2021/12/22 09:18:20;;;;;;;;;;;;;;;-0.66;76.05;101892.22;4957914;27;20539;-82
2021/12/22 09:20:46;;;;;;;;;;;;;;;-0.40;75.71;101886.38;4954781;27;19914;-82
2021/12/22 09:23:12;;;;;;;;;;;;;;;-0.20;75.40;101900.66;4980435;27;20162;-83
2021/12/22 09:25:37;;;;;;;;;;;;;;;-0.03;74.57;101895.00;4958599;27;19997;-83
2021/12/22 09:28:02;;;;;;;;;;;;;;;0.04;74.51;101903.50;4948255;27;20435;-83
2021/12/22 09:30:29;;;;;;;;;;;;;;;0.22;72.98;101897.81;4938138;28;19919;-83
2021/12/22 09:32:54;;;;;;;;;;;;;;;0.53;72.02;101899.56;4937028;27;19904;-85
2021/12/22 09:35:21;;;;;;;;;;;;;;;0.63;70.08;101903.63;4966829;27;19916;-83
2021/12/22 09:37:46;;;;;;;;;;;;;;;0.93;69.71;101898.44;4985342;27;19961;-84
2021/12/22 09:40:11;;;;;;;;;;;;;;;1.22;68.98;101899.28;4962513;27;19907;-83
2021/12/22 09:42:37;;;;;;;;;;;;;;;1.42;68.10;101906.47;4962518;27;20142;-83
2021/12/22 09:45:02;;;;;;;;;;;;;;;1.82;66.99;101904.28;4967485;27;20002;-82
2021/12/22 09:47:31;;;;;;;;;;;;;;;1.66;66.10;101896.97;4946095;27;19928;-81
2021/12/22 09:52:31;;;;;;;;;;;;;;;2.03;64.75;101885.31;4955516;27;20452;-82
2021/12/22 09:54:59;;;;;;;;;;;;;;;2.22;64.23;101879.44;4957878;27;19907;-81
2021/12/22 09:57:24;;;;;;;;;;;;;;;1.87;64.45;101878.91;4942784;28;20861;-83
2021/12/22 09:59:50;;;;;;;;;;;;;;;2.33;63.38;101877.28;4945401;28;19915;-83
2021/12/22 10:02:16;;;;;;;;;;;;;;;2.80;62.69;101883.44;5005191;27;19918;-83
2021/12/22 10:04:41;;;;;;;;;;;;;;;2.97;60.62;101874.94;4966326;28;20407;-83
2021/12/22 10:07:08;;;;;;;;;;;;;;;3.20;61.05;101866.16;4956730;28;19959;-83
2021/12/22 10:09:41;;;;;;;;;;;;;;;3.23;60.15;101858.22;4962715;28;20422;-83
2021/12/22 10:12:06;;;;;;;;;;;;;;;3.77;59.00;101859.44;4953303;28;20703;-83
2021/12/22 10:14:33;;;;;;;;;;;;;;;3.89;58.35;101860.72;4951063;28;19912;-83
2021/12/22 10:16:59;;;;;;;;;;;;;;;3.39;57.67;101854.06;4971758;28;20369;-82
2021/12/22 10:19:24;;;;;;;;;;;;;;;3.54;57.58;101860.44;4957828;28;19949;-81
2021/12/22 10:21:59;;;;;;;;;;;;;;;3.68;58.63;101852.00;4961936;28;19900;-81
2021/12/22 10:24:35;;;;;;;;;;;;;;;3.66;58.81;101856.44;4947160;28;20308;-81
2021/12/22 10:27:01;;;;;;;;;;;;;;;3.59;58.12;101862.84;4942160;28;20257;-81
2021/12/22 10:29:31;;;;;;;;;;;;;;;3.21;57.81;101846.97;4941739;28;19921;-82
2021/12/22 10:32:01;;;;;;;;;;;;;;;3.38;59.32;101846.28;4958606;28;21232;-83
2021/12/22 10:34:27;;;;;;;;;;;;;;;3.44;58.24;101859.97;4968037;28;20359;-81
2021/12/22 10:36:53;;;;;;;;;;;;;;;3.44;58.56;101852.09;4958407;28;20357;-81
2021/12/22 10:39:22;;;;;;;;;;;;;;;3.42;58.88;101848.69;4962610;28;19912;-81
2021/12/22 10:41:47;;;;;;;;;;;;;;;3.07;57.95;101845.75;4969482;28;20071;-82
2021/12/22 10:44:13;;;;;;;;;;;;;;;3.05;58.42;101844.13;4964429;28;20405;-82
2021/12/22 10:46:38;;;;;;;;;;;;;;;2.88;59.48;101847.41;4964716;28;19919;-83
2021/12/22 10:49:20;;;;;;;;;;;;;;;3.08;59.28;101854.44;4979349;27;19923;-85
2021/12/22 10:52:06;;;;;;;;;;;;;;;3.22;59.33;101851.28;4982261;28;20048;-84
2021/12/22 10:54:36;;;;;;;;;;;;;;;2.95;58.45;101842.75;4979538;28;20013;-84
2021/12/22 10:57:02;;;;;;;;;;;;;;;3.00;58.27;101838.19;4987160;27;20314;-83
2021/12/22 10:59:28;;;;;;;;;;;;;;;3.04;57.96;101835.41;4972050;28;19964;-84
2021/12/22 11:01:54;;;;;;;;;;;;;;;3.05;58.42;101831.88;4936521;28;20464;-83
2021/12/22 11:04:28;;;;;;;;;;;;;;;3.11;58.30;101824.72;4955786;28;20637;-84
2021/12/22 11:06:55;;;;;;;;;;;;;;;3.24;58.03;101826.78;4954991;27;19908;-85
2021/12/22 11:09:21;;;;;;;;;;;;;;;3.24;58.04;101824.16;4958403;28;20326;-84
2021/12/22 11:11:48;;;;;;;;;;;;;;;3.35;57.58;101821.06;4950480;28;19912;-83
2021/12/22 11:14:16;;;;;;;;;;;;;;;3.28;57.78;101818.78;4949432;28;19928;-82
2021/12/22 11:17:00;;;;;;;;;;;;;;;2.98;57.86;101822.56;4965973;27;19911;-81
2021/12/22 11:19:30;;;;;;;;;;;;;;;2.98;57.99;101812.13;4982423;27;19911;-81
2021/12/22 11:22:02;;;;;;;;;;;;;;;3.17;58.17;101806.13;4964284;28;20220;-82
2021/12/22 11:24:28;;;;;;;;;;;;;;;3.17;57.42;101806.13;4964001;28;20866;-82
2021/12/22 11:26:53;;;;;;;;;;;;;;;3.28;57.29;101806.56;4954883;28;20014;-82
2021/12/22 11:29:19;;;;;;;;;;;;;;;3.04;57.81;101806.63;4958921;28;19932;-81
2021/12/22 11:31:45;;;;;;;;;;;;;;;2.89;57.96;101799.41;4974811;28;20322;-84
2021/12/22 11:34:11;;;;;;;;;;;;;;;2.96;59.12;101802.63;4950281;28;20781;-82
2021/12/22 11:36:36;;;;;;;;;;;;;;;2.94;58.99;101809.69;4944390;28;19987;-79
2021/12/22 11:39:01;;;;;;;;;;;;;;;3.18;59.03;101805.25;4926453;28;20519;-80
2021/12/22 11:41:27;;;;;;;;;;;;;;;3.63;57.04;101799.00;4908436;28;19908;-80
2021/12/22 11:43:52;;;;;;;;;;;;;;;3.77;55.78;101785.31;4927293;28;20391;-80
2021/12/22 11:46:17;;;;;;;;;;;;;;;3.51;56.76;101789.03;4954708;28;19949;-79
2021/12/22 11:48:43;;;;;;;;;;;;;;;3.46;56.96;101784.00;4981153;27;20338;-80
2021/12/22 11:51:21;;;;;;;;;;;;;;;3.50;56.68;101779.47;4964186;28;19908;-79
2021/12/22 11:54:13;;;;;;;;;;;;;;;3.58;57.19;101783.50;4971848;28;19900;-82
2021/12/22 11:56:41;;;;;;;;;;;;;;;3.77;56.19;101767.81;4967151;28;19986;-80
2021/12/22 11:59:23;;;;;;;;;;;;;;;3.97;55.98;101766.09;4990137;28;20423;-80
2021/12/22 12:02:07;;;;;;;;;;;;;;;3.80;55.21;101761.59;4958780;28;20385;-80
2021/12/22 12:04:33;;;;;;;;;;;;;;;3.75;55.56;101767.06;4976025;28;19938;-82
2021/12/22 12:07:00;;;;;;;;;;;;;;;3.64;55.23;101753.59;4978346;28;20020;-82
2021/12/22 12:09:26;;;;;;;;;;;;;;;3.67;55.37;101748.22;4957903;28;19928;-82
2021/12/22 12:11:56;;;;;;;;;;;;;;;3.32;55.40;101753.19;4974879;28;20397;-82
2021/12/22 12:14:36;;;;;;;;;;;;;;;3.14;56.17;101744.34;4958654;28;20391;-82
2021/12/22 12:23:19;;;;;;;;;;;;;;;4.05;54.57;101732.56;4968175;28;19955;-81
2021/12/22 12:25:45;;;;;;;;;;;;;;;4.43;54.31;101722.06;4968656;28;21022;-82
2021/12/22 12:28:14;;;;;;;;;;;;;;;4.01;54.04;101731.00;4967544;28;19907;-82
2021/12/22 12:30:44;;;;;;;;;;;;;;;3.73;54.75;101734.84;4976536;28;20000;-82
2021/12/22 12:33:10;;;;;;;;;;;;;;;3.78;54.84;101740.72;4955344;28;20128;-83
2021/12/22 12:35:37;;;;;;;;;;;;;;;4.03;54.50;101733.53;4947522;28;19919;-82
2021/12/22 12:38:16;;;;;;;;;;;;;;;4.31;53.05;101727.88;4963676;28;20021;-81
2021/12/22 12:40:54;;;;;;;;;;;;;;;4.06;53.92;101723.78;4981299;28;19911;-83
2021/12/22 12:43:20;;;;;;;;;;;;;;;4.19;54.61;101718.81;5061696;28;19912;-82
2021/12/22 12:45:48;;;;;;;;;;;;;;;4.47;53.50;101728.84;4970084;23;19929;-70
2021/12/22 12:48:26;;;;;;;;;;;;;;;4.60;51.95;101716.00;4971322;28;19913;-70
2021/12/22 12:51:10;;;;;;;;;;;;;;;4.55;52.42;101712.75;4951163;28;19955;-70
2021/12/22 12:53:39;;;;;;;;;;;;;;;4.63;52.26;101718.47;4977239;28;20770;-70
2021/12/22 12:56:07;;;;;;;;;;;;;;;5.00;52.31;101721.06;4986008;28;19957;-69
2021/12/22 12:58:32;;;;;;;;;;;;;;;4.90;52.11;101719.84;4969665;28;21054;-71
2021/12/22 13:00:58;;;;;;;;;;;;;;;5.46;51.56;101721.34;4973109;28;19909;-67